Aeroporto :
LOGIN :

Iscrizione | Disclaimer

   EN    FR    IT 

 










Sommario :    VFR   VFR Marginale   IFR   IFR Intensivo   IFR Molto Intensivo
Visibilità : 
Base nubi : 
>= 8 km
>= 3000ft
5 / 8 km
1000 / 3000 ft
1500m / 5 km
500 / 1000 ft
800 / 1500m
200 / 500 ft
< 800m
< 200 ft
Simboli :   Temporali  Nebbia  Neve Forte  Precipitazioni Forti  Vento > 20 kt
SIGMETs :   Varie  Temporali  Ghiacco  Turbolenza  Onda orograficha  Ceneri Vulcaniche






- Altitudine del aeroporto : 436 ft
- Codice IATA : ANG


LFBU - Angoulême Brie Champniers

ULTIMO METAR :
  • 200400Z AUTO 33003KT CAVOK 07/06 Q1021

METARs OBSOLETI :
  • 200330Z AUTO 33004KT 9999 FEW017 07/06 Q1021
  • 200300Z AUTO 34004KT 9999 FEW039 07/06 Q1021
  • 200230Z AUTO 34003KT 9999 BKN038 07/06 Q1021
  • 200200Z AUTO 34004KT 9999 BKN036 07/05 Q1021
  • 200130Z AUTO 33004KT 9999 BKN033 08/05 Q1021
  • 200100Z AUTO 34003KT 9999 BKN030 08/06 Q1021
  • 200030Z AUTO 34003KT CAVOK 08/06 Q1021
  • 200000Z AUTO 36002KT CAVOK 07/05 Q1021
  • 192330Z AUTO 34002KT CAVOK 08/05 Q1021

TAF TAF LFBU
Valido dal 19 a 18 ore il 20 a 18 ore UTC


191700Z 1918/2018 28010KT CAVOK
BECMG 1923/2001 36005KT
TEMPO 2000/2004 3000 BR NSC
PROB40
TEMPO 2004/2008 BKN025



MetMap, La meteo Aeronautica in un colpo d'occhio ! - Copyright ORBIFLY Dicembre 2007 - Disclaimer

ORBIFLY MET'MAP TEAM :

Programmazione e sviluppo : Alexandra Zaïnal
Concezione : Baudouin d'Aumeries
Supporto tecnico e logistico : Manuel Goepfert
Aiuto : Marc-Olivier Méhu
Aiuto per la traduzione : Arnaldo La Scala




FONTI E CREDITI :

   NOAA